sensor_id;sensor_type;location;lat;lon;timestamp;P1;durP1;ratioP1;P2;durP2;ratioP2
10805;SDS011;5455;53.224;6.000;2023-01-24T00:00:50;6.60;;;5.17;;
10805;SDS011;5455;53.224;6.000;2023-01-24T00:03:17;6.50;;;5.00;;
10805;SDS011;5455;53.224;6.000;2023-01-24T00:05:45;6.67;;;5.23;;
10805;SDS011;5455;53.224;6.000;2023-01-24T00:08:14;5.93;;;4.83;;
10805;SDS011;5455;53.224;6.000;2023-01-24T00:10:42;6.70;;;5.23;;
10805;SDS011;5455;53.224;6.000;2023-01-24T00:13:12;6.37;;;5.50;;
10805;SDS011;5455;53.224;6.000;2023-01-24T00:15:40;5.60;;;4.93;;
10805;SDS011;5455;53.224;6.000;2023-01-24T00:18:08;6.33;;;5.17;;
10805;SDS011;5455;53.224;6.000;2023-01-24T00:20:36;7.47;;;5.27;;
10805;SDS011;5455;53.224;6.000;2023-01-24T00:23:03;7.33;;;5.60;;
10805;SDS011;5455;53.224;6.000;2023-01-24T00:25:30;7.20;;;5.57;;
10805;SDS011;5455;53.224;6.000;2023-01-24T00:27:57;8.77;;;5.77;;
10805;SDS011;5455;53.224;6.000;2023-01-24T00:30:24;5.63;;;4.80;;
10805;SDS011;5455;53.224;6.000;2023-01-24T00:32:51;6.20;;;4.87;;
10805;SDS011;5455;53.224;6.000;2023-01-24T00:35:18;6.00;;;5.03;;
10805;SDS011;5455;53.224;6.000;2023-01-24T00:37:46;6.60;;;5.20;;
10805;SDS011;5455;53.224;6.000;2023-01-24T00:40:13;6.60;;;5.13;;
10805;SDS011;5455;53.224;6.000;2023-01-24T00:42:40;5.83;;;4.90;;
10805;SDS011;5455;53.224;6.000;2023-01-24T00:45:07;6.40;;;5.50;;
10805;SDS011;5455;53.224;6.000;2023-01-24T00:47:34;6.37;;;5.10;;
10805;SDS011;5455;53.224;6.000;2023-01-24T00:50:01;6.50;;;5.60;;
10805;SDS011;5455;53.224;6.000;2023-01-24T00:52:29;6.33;;;4.70;;
10805;SDS011;5455;53.224;6.000;2023-01-24T00:54:56;7.30;;;5.60;;
10805;SDS011;5455;53.224;6.000;2023-01-24T00:57:23;6.83;;;5.47;;
10805;SDS011;5455;53.224;6.000;2023-01-24T00:59:51;6.43;;;5.13;;
10805;SDS011;5455;53.224;6.000;2023-01-24T01:02:18;7.30;;;5.90;;
10805;SDS011;5455;53.224;6.000;2023-01-24T01:04:45;7.17;;;5.33;;
10805;SDS011;5455;53.224;6.000;2023-01-24T01:07:13;5.73;;;4.97;;
10805;SDS011;5455;53.224;6.000;2023-01-24T01:09:40;6.40;;;5.27;;
10805;SDS011;5455;53.224;6.000;2023-01-24T01:12:07;7.37;;;5.63;;
10805;SDS011;5455;53.224;6.000;2023-01-24T01:14:34;7.13;;;5.47;;
10805;SDS011;5455;53.224;6.000;2023-01-24T01:17:02;8.67;;;5.77;;
10805;SDS011;5455;53.224;6.000;2023-01-24T01:19:29;7.30;;;5.63;;
10805;SDS011;5455;53.224;6.000;2023-01-24T01:21:56;6.20;;;5.40;;
10805;SDS011;5455;53.224;6.000;2023-01-24T01:24:24;5.90;;;4.90;;
10805;SDS011;5455;53.224;6.000;2023-01-24T01:26:51;9.43;;;6.03;;
10805;SDS011;5455;53.224;6.000;2023-01-24T01:29:18;9.23;;;5.53;;
10805;SDS011;5455;53.224;6.000;2023-01-24T01:31:45;6.80;;;5.60;;
10805;SDS011;5455;53.224;6.000;2023-01-24T01:34:12;7.10;;;5.97;;
10805;SDS011;5455;53.224;6.000;2023-01-24T01:36:39;8.60;;;5.80;;
10805;SDS011;5455;53.224;6.000;2023-01-24T01:39:07;7.77;;;5.90;;
10805;SDS011;5455;53.224;6.000;2023-01-24T01:41:34;7.57;;;5.83;;
10805;SDS011;5455;53.224;6.000;2023-01-24T01:44:17;7.80;;;5.50;;
10805;SDS011;5455;53.224;6.000;2023-01-24T01:47:34;8.03;;;5.77;;
10805;SDS011;5455;53.224;6.000;2023-01-24T01:52:46;8.50;;;5.70;;
10805;SDS011;5455;53.224;6.000;2023-01-24T01:55:17;7.87;;;5.77;;
10805;SDS011;5455;53.224;6.000;2023-01-24T01:57:48;8.17;;;6.10;;
10805;SDS011;5455;53.224;6.000;2023-01-24T02:00:20;8.63;;;6.30;;
10805;SDS011;5455;53.224;6.000;2023-01-24T02:02:58;7.73;;;6.13;;
10805;SDS011;5455;53.224;6.000;2023-01-24T02:05:47;9.10;;;6.40;;
10805;SDS011;5455;53.224;6.000;2023-01-24T02:08:19;8.53;;;6.57;;
10805;SDS011;5455;53.224;6.000;2023-01-24T02:10:48;7.87;;;5.97;;
10805;SDS011;5455;53.224;6.000;2023-01-24T02:13:36;8.53;;;6.00;;
10805;SDS011;5455;53.224;6.000;2023-01-24T02:16:13;7.90;;;5.70;;
10805;SDS011;5455;53.224;6.000;2023-01-24T02:18:42;8.33;;;6.00;;
10805;SDS011;5455;53.224;6.000;2023-01-24T02:21:11;8.10;;;5.70;;
10805;SDS011;5455;53.224;6.000;2023-01-24T02:26:16;8.47;;;5.97;;
10805;SDS011;5455;53.224;6.000;2023-01-24T02:29:17;6.90;;;5.43;;
10805;SDS011;5455;53.224;6.000;2023-01-24T02:34:26;8.83;;;5.93;;
10805;SDS011;5455;53.224;6.000;2023-01-24T02:36:58;7.70;;;5.90;;
10805;SDS011;5455;53.224;6.000;2023-01-24T02:39:32;7.37;;;5.73;;
10805;SDS011;5455;53.224;6.000;2023-01-24T02:42:14;9.13;;;6.37;;
10805;SDS011;5455;53.224;6.000;2023-01-24T02:44:48;7.33;;;6.00;;
10805;SDS011;5455;53.224;6.000;2023-01-24T02:47:19;8.83;;;5.90;;
10805;SDS011;5455;53.224;6.000;2023-01-24T02:49:47;8.23;;;6.03;;
10805;SDS011;5455;53.224;6.000;2023-01-24T02:52:14;7.50;;;6.03;;
10805;SDS011;5455;53.224;6.000;2023-01-24T02:54:59;7.90;;;6.00;;
10805;SDS011;5455;53.224;6.000;2023-01-24T02:57:26;8.07;;;6.37;;
10805;SDS011;5455;53.224;6.000;2023-01-24T03:00:12;8.03;;;6.10;;
10805;SDS011;5455;53.224;6.000;2023-01-24T03:02:39;8.40;;;6.03;;
10805;SDS011;5455;53.224;6.000;2023-01-24T03:05:10;7.27;;;5.83;;
10805;SDS011;5455;53.224;6.000;2023-01-24T03:07:37;7.77;;;6.00;;
10805;SDS011;5455;53.224;6.000;2023-01-24T03:10:16;7.37;;;5.70;;
10805;SDS011;5455;53.224;6.000;2023-01-24T03:12:50;8.80;;;6.33;;
10805;SDS011;5455;53.224;6.000;2023-01-24T03:15:36;9.13;;;6.30;;
10805;SDS011;5455;53.224;6.000;2023-01-24T03:18:21;7.87;;;6.10;;
10805;SDS011;5455;53.224;6.000;2023-01-24T03:21:06;8.87;;;5.73;;
10805;SDS011;5455;53.224;6.000;2023-01-24T03:23:52;6.93;;;5.63;;
10805;SDS011;5455;53.224;6.000;2023-01-24T03:26:38;7.40;;;5.87;;
10805;SDS011;5455;53.224;6.000;2023-01-24T03:29:24;8.37;;;5.63;;
10805;SDS011;5455;53.224;6.000;2023-01-24T03:32:10;7.20;;;6.00;;
10805;SDS011;5455;53.224;6.000;2023-01-24T03:34:56;6.97;;;5.30;;
10805;SDS011;5455;53.224;6.000;2023-01-24T03:37:28;8.17;;;5.47;;
10805;SDS011;5455;53.224;6.000;2023-01-24T03:40:17;6.53;;;5.10;;
10805;SDS011;5455;53.224;6.000;2023-01-24T03:42:46;7.20;;;4.93;;
10805;SDS011;5455;53.224;6.000;2023-01-24T03:45:28;7.53;;;5.33;;
10805;SDS011;5455;53.224;6.000;2023-01-24T03:47:57;6.83;;;5.43;;
10805;SDS011;5455;53.224;6.000;2023-01-24T03:50:27;7.23;;;5.50;;
10805;SDS011;5455;53.224;6.000;2023-01-24T03:53:16;7.07;;;5.53;;
10805;SDS011;5455;53.224;6.000;2023-01-24T03:55:46;6.57;;;5.03;;
10805;SDS011;5455;53.224;6.000;2023-01-24T03:58:18;8.03;;;5.90;;
10805;SDS011;5455;53.224;6.000;2023-01-24T04:00:46;8.03;;;5.83;;
10805;SDS011;5455;53.224;6.000;2023-01-24T04:03:33;7.03;;;5.53;;
10805;SDS011;5455;53.224;6.000;2023-01-24T04:06:00;9.57;;;5.73;;
10805;SDS011;5455;53.224;6.000;2023-01-24T04:08:28;7.10;;;5.30;;
10805;SDS011;5455;53.224;6.000;2023-01-24T04:10:56;7.43;;;5.80;;
10805;SDS011;5455;53.224;6.000;2023-01-24T04:13:23;8.93;;;5.00;;
10805;SDS011;5455;53.224;6.000;2023-01-24T04:15:50;7.37;;;5.60;;
10805;SDS011;5455;53.224;6.000;2023-01-24T04:18:34;6.63;;;5.27;;
10805;SDS011;5455;53.224;6.000;2023-01-24T04:21:05;7.27;;;4.93;;
10805;SDS011;5455;53.224;6.000;2023-01-24T04:23:33;5.90;;;5.13;;
10805;SDS011;5455;53.224;6.000;2023-01-24T04:26:00;6.53;;;4.83;;
10805;SDS011;5455;53.224;6.000;2023-01-24T04:28:30;7.33;;;5.70;;
10805;SDS011;5455;53.224;6.000;2023-01-24T04:31:02;5.57;;;4.63;;
10805;SDS011;5455;53.224;6.000;2023-01-24T04:33:50;7.27;;;5.57;;
10805;SDS011;5455;53.224;6.000;2023-01-24T04:36:17;8.60;;;5.90;;
10805;SDS011;5455;53.224;6.000;2023-01-24T04:38:45;6.93;;;5.43;;
10805;SDS011;5455;53.224;6.000;2023-01-24T04:41:21;7.07;;;5.40;;
10805;SDS011;5455;53.224;6.000;2023-01-24T04:43:49;7.80;;;5.90;;
10805;SDS011;5455;53.224;6.000;2023-01-24T04:46:17;7.83;;;5.83;;
10805;SDS011;5455;53.224;6.000;2023-01-24T04:48:53;8.73;;;6.10;;
10805;SDS011;5455;53.224;6.000;2023-01-24T04:51:26;5.10;;;4.33;;
10805;SDS011;5455;53.224;6.000;2023-01-24T04:53:53;7.07;;;5.50;;
10805;SDS011;5455;53.224;6.000;2023-01-24T04:56:24;7.80;;;5.70;;
10805;SDS011;5455;53.224;6.000;2023-01-24T04:58:54;7.87;;;5.40;;
10805;SDS011;5455;53.224;6.000;2023-01-24T05:01:21;6.90;;;5.87;;
10805;SDS011;5455;53.224;6.000;2023-01-24T05:03:54;7.13;;;5.60;;
10805;SDS011;5455;53.224;6.000;2023-01-24T05:06:27;8.10;;;6.00;;
10805;SDS011;5455;53.224;6.000;2023-01-24T05:08:57;7.37;;;5.70;;
10805;SDS011;5455;53.224;6.000;2023-01-24T05:11:34;8.17;;;6.47;;
10805;SDS011;5455;53.224;6.000;2023-01-24T05:14:07;7.50;;;5.80;;
10805;SDS011;5455;53.224;6.000;2023-01-24T05:16:35;6.83;;;5.60;;
10805;SDS011;5455;53.224;6.000;2023-01-24T05:19:02;7.30;;;5.30;;
10805;SDS011;5455;53.224;6.000;2023-01-24T05:21:30;6.87;;;5.37;;
10805;SDS011;5455;53.224;6.000;2023-01-24T05:23:58;7.17;;;5.20;;
10805;SDS011;5455;53.224;6.000;2023-01-24T05:26:25;7.00;;;5.80;;
10805;SDS011;5455;53.224;6.000;2023-01-24T05:28:53;6.80;;;4.90;;
10805;SDS011;5455;53.224;6.000;2023-01-24T05:31:22;7.00;;;5.17;;
10805;SDS011;5455;53.224;6.000;2023-01-24T05:33:50;7.60;;;5.90;;
10805;SDS011;5455;53.224;6.000;2023-01-24T05:36:21;6.40;;;5.60;;
10805;SDS011;5455;53.224;6.000;2023-01-24T05:38:50;6.83;;;5.47;;
10805;SDS011;5455;53.224;6.000;2023-01-24T05:41:18;7.33;;;5.80;;
10805;SDS011;5455;53.224;6.000;2023-01-24T05:43:50;6.27;;;5.10;;
10805;SDS011;5455;53.224;6.000;2023-01-24T05:46:21;8.17;;;5.53;;
10805;SDS011;5455;53.224;6.000;2023-01-24T05:49:10;6.50;;;5.50;;
10805;SDS011;5455;53.224;6.000;2023-01-24T05:51:37;6.87;;;5.20;;
10805;SDS011;5455;53.224;6.000;2023-01-24T05:54:05;6.57;;;5.27;;
10805;SDS011;5455;53.224;6.000;2023-01-24T05:56:50;6.47;;;5.77;;
10805;SDS011;5455;53.224;6.000;2023-01-24T05:59:17;8.37;;;5.57;;
10805;SDS011;5455;53.224;6.000;2023-01-24T06:01:45;7.63;;;5.47;;
10805;SDS011;5455;53.224;6.000;2023-01-24T06:04:12;9.00;;;6.43;;
10805;SDS011;5455;53.224;6.000;2023-01-24T06:06:39;8.23;;;5.70;;
10805;SDS011;5455;53.224;6.000;2023-01-24T06:09:07;6.83;;;5.40;;
10805;SDS011;5455;53.224;6.000;2023-01-24T06:11:35;6.93;;;5.53;;
10805;SDS011;5455;53.224;6.000;2023-01-24T06:14:13;6.50;;;5.47;;
10805;SDS011;5455;53.224;6.000;2023-01-24T06:16:45;6.47;;;5.73;;
10805;SDS011;5455;53.224;6.000;2023-01-24T06:19:16;8.43;;;6.37;;
10805;SDS011;5455;53.224;6.000;2023-01-24T06:21:46;7.67;;;5.67;;
10805;SDS011;5455;53.224;6.000;2023-01-24T06:24:24;7.40;;;5.73;;
10805;SDS011;5455;53.224;6.000;2023-01-24T06:27:19;7.20;;;5.90;;
10805;SDS011;5455;53.224;6.000;2023-01-24T06:29:46;8.33;;;6.37;;
10805;SDS011;5455;53.224;6.000;2023-01-24T06:32:27;8.80;;;6.47;;
10805;SDS011;5455;53.224;6.000;2023-01-24T06:35:16;7.03;;;5.73;;
10805;SDS011;5455;53.224;6.000;2023-01-24T06:37:55;8.47;;;6.23;;
10805;SDS011;5455;53.224;6.000;2023-01-24T06:40:24;9.70;;;7.00;;
10805;SDS011;5455;53.224;6.000;2023-01-24T06:42:52;7.67;;;6.20;;
10805;SDS011;5455;53.224;6.000;2023-01-24T06:45:20;8.50;;;6.77;;
10805;SDS011;5455;53.224;6.000;2023-01-24T06:47:48;9.03;;;6.90;;
10805;SDS011;5455;53.224;6.000;2023-01-24T06:50:16;9.67;;;6.77;;
10805;SDS011;5455;53.224;6.000;2023-01-24T06:52:46;7.50;;;6.50;;
10805;SDS011;5455;53.224;6.000;2023-01-24T06:55:13;8.53;;;6.57;;
10805;SDS011;5455;53.224;6.000;2023-01-24T06:57:41;9.70;;;6.97;;
10805;SDS011;5455;53.224;6.000;2023-01-24T07:00:08;9.57;;;7.07;;
10805;SDS011;5455;53.224;6.000;2023-01-24T07:02:36;9.13;;;6.80;;
10805;SDS011;5455;53.224;6.000;2023-01-24T07:05:03;9.27;;;6.90;;
10805;SDS011;5455;53.224;6.000;2023-01-24T07:07:30;9.53;;;7.27;;
10805;SDS011;5455;53.224;6.000;2023-01-24T07:09:58;10.73;;;7.57;;
10805;SDS011;5455;53.224;6.000;2023-01-24T07:12:25;8.60;;;7.33;;
10805;SDS011;5455;53.224;6.000;2023-01-24T07:14:52;10.77;;;8.30;;
10805;SDS011;5455;53.224;6.000;2023-01-24T07:17:19;10.23;;;7.87;;
10805;SDS011;5455;53.224;6.000;2023-01-24T07:19:47;10.30;;;7.60;;
10805;SDS011;5455;53.224;6.000;2023-01-24T07:22:15;11.23;;;8.30;;
10805;SDS011;5455;53.224;6.000;2023-01-24T07:24:42;8.50;;;7.47;;
10805;SDS011;5455;53.224;6.000;2023-01-24T07:27:11;11.13;;;8.00;;
10805;SDS011;5455;53.224;6.000;2023-01-24T07:29:38;10.83;;;7.77;;
10805;SDS011;5455;53.224;6.000;2023-01-24T07:32:05;12.67;;;8.80;;
10805;SDS011;5455;53.224;6.000;2023-01-24T07:34:32;11.20;;;8.87;;
10805;SDS011;5455;53.224;6.000;2023-01-24T07:36:59;12.27;;;8.80;;
10805;SDS011;5455;53.224;6.000;2023-01-24T07:39:27;11.53;;;8.50;;
10805;SDS011;5455;53.224;6.000;2023-01-24T07:41:56;12.03;;;9.37;;
10805;SDS011;5455;53.224;6.000;2023-01-24T07:44:23;12.00;;;9.30;;
10805;SDS011;5455;53.224;6.000;2023-01-24T07:46:50;12.57;;;9.23;;
10805;SDS011;5455;53.224;6.000;2023-01-24T07:49:17;12.60;;;9.27;;
10805;SDS011;5455;53.224;6.000;2023-01-24T07:51:45;12.67;;;9.60;;
10805;SDS011;5455;53.224;6.000;2023-01-24T07:54:15;11.93;;;9.13;;
10805;SDS011;5455;53.224;6.000;2023-01-24T07:56:45;13.97;;;9.13;;
10805;SDS011;5455;53.224;6.000;2023-01-24T07:59:12;13.70;;;9.27;;
10805;SDS011;5455;53.224;6.000;2023-01-24T08:01:40;13.47;;;9.13;;
10805;SDS011;5455;53.224;6.000;2023-01-24T08:04:08;13.20;;;9.17;;
10805;SDS011;5455;53.224;6.000;2023-01-24T08:06:35;12.07;;;9.03;;
10805;SDS011;5455;53.224;6.000;2023-01-24T08:09:02;11.63;;;9.00;;
10805;SDS011;5455;53.224;6.000;2023-01-24T08:11:29;12.07;;;9.73;;
10805;SDS011;5455;53.224;6.000;2023-01-24T08:13:56;12.17;;;9.40;;
10805;SDS011;5455;53.224;6.000;2023-01-24T08:16:23;13.33;;;9.60;;
10805;SDS011;5455;53.224;6.000;2023-01-24T08:18:52;13.90;;;10.23;;
10805;SDS011;5455;53.224;6.000;2023-01-24T08:21:19;11.70;;;8.70;;
10805;SDS011;5455;53.224;6.000;2023-01-24T08:23:47;12.63;;;9.37;;
10805;SDS011;5455;53.224;6.000;2023-01-24T08:26:14;12.30;;;8.90;;
10805;SDS011;5455;53.224;6.000;2023-01-24T08:28:41;11.23;;;8.67;;
10805;SDS011;5455;53.224;6.000;2023-01-24T08:31:08;13.33;;;9.13;;
10805;SDS011;5455;53.224;6.000;2023-01-24T08:33:35;13.47;;;9.10;;
10805;SDS011;5455;53.224;6.000;2023-01-24T08:36:04;14.23;;;9.43;;
10805;SDS011;5455;53.224;6.000;2023-01-24T08:38:32;13.20;;;8.47;;
10805;SDS011;5455;53.224;6.000;2023-01-24T08:41:02;15.93;;;9.03;;
10805;SDS011;5455;53.224;6.000;2023-01-24T08:43:29;13.33;;;9.47;;
10805;SDS011;5455;53.224;6.000;2023-01-24T08:45:56;13.73;;;9.63;;
10805;SDS011;5455;53.224;6.000;2023-01-24T08:48:23;12.97;;;9.30;;
10805;SDS011;5455;53.224;6.000;2023-01-24T08:50:50;13.57;;;9.10;;
10805;SDS011;5455;53.224;6.000;2023-01-24T08:53:17;12.13;;;9.37;;
10805;SDS011;5455;53.224;6.000;2023-01-24T08:55:47;13.83;;;9.90;;
10805;SDS011;5455;53.224;6.000;2023-01-24T08:58:16;13.63;;;9.83;;
10805;SDS011;5455;53.224;6.000;2023-01-24T09:00:43;16.67;;;10.03;;
10805;SDS011;5455;53.224;6.000;2023-01-24T09:03:15;12.40;;;9.67;;
10805;SDS011;5455;53.224;6.000;2023-01-24T09:05:44;12.63;;;9.63;;
10805;SDS011;5455;53.224;6.000;2023-01-24T09:08:11;14.10;;;9.03;;
10805;SDS011;5455;53.224;6.000;2023-01-24T09:10:38;15.20;;;10.27;;
10805;SDS011;5455;53.224;6.000;2023-01-24T09:13:06;14.07;;;10.10;;
10805;SDS011;5455;53.224;6.000;2023-01-24T09:15:33;15.27;;;9.63;;
10805;SDS011;5455;53.224;6.000;2023-01-24T09:18:01;12.47;;;9.67;;
10805;SDS011;5455;53.224;6.000;2023-01-24T09:20:28;13.77;;;9.20;;
10805;SDS011;5455;53.224;6.000;2023-01-24T09:22:55;12.73;;;9.33;;
10805;SDS011;5455;53.224;6.000;2023-01-24T09:25:22;12.03;;;8.77;;
10805;SDS011;5455;53.224;6.000;2023-01-24T09:27:53;12.57;;;9.20;;
10805;SDS011;5455;53.224;6.000;2023-01-24T09:30:22;13.00;;;9.10;;
10805;SDS011;5455;53.224;6.000;2023-01-24T09:32:50;13.47;;;8.23;;
10805;SDS011;5455;53.224;6.000;2023-01-24T09:35:17;12.67;;;9.53;;
10805;SDS011;5455;53.224;6.000;2023-01-24T09:37:44;11.63;;;8.90;;
10805;SDS011;5455;53.224;6.000;2023-01-24T09:40:18;10.53;;;8.47;;
10805;SDS011;5455;53.224;6.000;2023-01-24T09:42:53;11.47;;;8.73;;
10805;SDS011;5455;53.224;6.000;2023-01-24T09:48:20;10.90;;;7.87;;
10805;SDS011;5455;53.224;6.000;2023-01-24T09:50:49;12.23;;;9.07;;
10805;SDS011;5455;53.224;6.000;2023-01-24T09:53:28;11.53;;;8.50;;
10805;SDS011;5455;53.224;6.000;2023-01-24T09:55:59;12.43;;;8.27;;
10805;SDS011;5455;53.224;6.000;2023-01-24T09:58:40;10.27;;;7.87;;
10805;SDS011;5455;53.224;6.000;2023-01-24T10:01:11;10.50;;;7.37;;
10805;SDS011;5455;53.224;6.000;2023-01-24T10:03:40;11.73;;;8.20;;
10805;SDS011;5455;53.224;6.000;2023-01-24T10:06:15;11.00;;;7.97;;
10805;SDS011;5455;53.224;6.000;2023-01-24T10:20:17;10.37;;;7.33;;
10805;SDS011;5455;53.224;6.000;2023-01-24T10:28:34;10.53;;;7.40;;
10805;SDS011;5455;53.224;6.000;2023-01-24T10:31:12;10.37;;;7.60;;
10805;SDS011;5455;53.224;6.000;2023-01-24T10:33:47;10.17;;;7.43;;
10805;SDS011;5455;53.224;6.000;2023-01-24T10:38:55;9.17;;;7.17;;
10805;SDS011;5455;53.224;6.000;2023-01-24T10:41:23;9.13;;;7.57;;
10805;SDS011;5455;53.224;6.000;2023-01-24T10:43:53;9.57;;;7.60;;
10805;SDS011;5455;53.224;6.000;2023-01-24T10:49:00;10.00;;;6.60;;
10805;SDS011;5455;53.224;6.000;2023-01-24T10:51:34;11.30;;;7.37;;
10805;SDS011;5455;53.224;6.000;2023-01-24T10:54:01;10.70;;;7.77;;
10805;SDS011;5455;53.224;6.000;2023-01-24T10:56:29;8.93;;;6.90;;
10805;SDS011;5455;53.224;6.000;2023-01-24T10:58:57;9.63;;;6.60;;
10805;SDS011;5455;53.224;6.000;2023-01-24T11:01:37;9.37;;;7.53;;
10805;SDS011;5455;53.224;6.000;2023-01-24T11:04:13;10.00;;;7.17;;
10805;SDS011;5455;53.224;6.000;2023-01-24T11:06:42;8.57;;;6.93;;
10805;SDS011;5455;53.224;6.000;2023-01-24T11:09:14;9.93;;;6.80;;
10805;SDS011;5455;53.224;6.000;2023-01-24T11:11:50;9.97;;;7.40;;
10805;SDS011;5455;53.224;6.000;2023-01-24T11:14:20;9.07;;;7.37;;
10805;SDS011;5455;53.224;6.000;2023-01-24T11:16:51;9.57;;;7.20;;
10805;SDS011;5455;53.224;6.000;2023-01-24T11:21:56;9.03;;;7.17;;
10805;SDS011;5455;53.224;6.000;2023-01-24T11:24:25;11.50;;;7.90;;
10805;SDS011;5455;53.224;6.000;2023-01-24T11:27:15;10.40;;;7.97;;
10805;SDS011;5455;53.224;6.000;2023-01-24T11:29:44;11.63;;;8.23;;
10805;SDS011;5455;53.224;6.000;2023-01-24T11:51:37;10.87;;;7.53;;
10805;SDS011;5455;53.224;6.000;2023-01-24T11:54:21;11.63;;;8.00;;
10805;SDS011;5455;53.224;6.000;2023-01-24T12:02:28;9.27;;;7.57;;
10805;SDS011;5455;53.224;6.000;2023-01-24T12:16:02;9.80;;;7.17;;
10805;SDS011;5455;53.224;6.000;2023-01-24T12:21:24;10.27;;;7.10;;
10805;SDS011;5455;53.224;6.000;2023-01-24T12:26:44;7.97;;;6.07;;
10805;SDS011;5455;53.224;6.000;2023-01-24T12:29:25;10.20;;;7.27;;
10805;SDS011;5455;53.224;6.000;2023-01-24T12:32:03;8.00;;;6.37;;
10805;SDS011;5455;53.224;6.000;2023-01-24T12:42:25;12.40;;;8.70;;
10805;SDS011;5455;53.224;6.000;2023-01-24T12:45:25;11.40;;;8.13;;
10805;SDS011;5455;53.224;6.000;2023-01-24T12:51:03;9.33;;;7.27;;
10805;SDS011;5455;53.224;6.000;2023-01-24T12:53:54;10.10;;;7.87;;
10805;SDS011;5455;53.224;6.000;2023-01-24T12:56:50;9.80;;;7.37;;
10805;SDS011;5455;53.224;6.000;2023-01-24T12:59:26;9.93;;;7.50;;
10805;SDS011;5455;53.224;6.000;2023-01-24T13:05:02;10.47;;;7.70;;
10805;SDS011;5455;53.224;6.000;2023-01-24T13:10:38;9.60;;;7.17;;
10805;SDS011;5455;53.224;6.000;2023-01-24T13:13:14;8.67;;;6.77;;
10805;SDS011;5455;53.224;6.000;2023-01-24T13:15:56;8.00;;;6.37;;
10805;SDS011;5455;53.224;6.000;2023-01-24T13:21:29;10.17;;;7.27;;
10805;SDS011;5455;53.224;6.000;2023-01-24T13:32:36;9.10;;;6.53;;
10805;SDS011;5455;53.224;6.000;2023-01-24T13:35:16;9.47;;;7.33;;
10805;SDS011;5455;53.224;6.000;2023-01-24T13:37:52;8.43;;;6.43;;
10805;SDS011;5455;53.224;6.000;2023-01-24T13:40:29;12.67;;;8.07;;
10805;SDS011;5455;53.224;6.000;2023-01-24T13:43:02;10.20;;;7.20;;
10805;SDS011;5455;53.224;6.000;2023-01-24T13:48:42;8.27;;;6.63;;
10805;SDS011;5455;53.224;6.000;2023-01-24T13:56:35;9.13;;;7.37;;
10805;SDS011;5455;53.224;6.000;2023-01-24T13:59:39;9.60;;;6.87;;
10805;SDS011;5455;53.224;6.000;2023-01-24T14:02:27;8.57;;;6.80;;
10805;SDS011;5455;53.224;6.000;2023-01-24T14:04:57;8.53;;;6.93;;
10805;SDS011;5455;53.224;6.000;2023-01-24T14:07:35;11.20;;;6.40;;
10805;SDS011;5455;53.224;6.000;2023-01-24T14:10:05;9.63;;;7.40;;
10805;SDS011;5455;53.224;6.000;2023-01-24T14:12:38;11.00;;;6.67;;
10805;SDS011;5455;53.224;6.000;2023-01-24T14:20:15;8.57;;;6.80;;
10805;SDS011;5455;53.224;6.000;2023-01-24T14:22:47;8.77;;;6.63;;
10805;SDS011;5455;53.224;6.000;2023-01-24T14:28:09;7.70;;;6.40;;
10805;SDS011;5455;53.224;6.000;2023-01-24T14:30:46;8.00;;;6.37;;
10805;SDS011;5455;53.224;6.000;2023-01-24T14:33:20;10.17;;;7.50;;
10805;SDS011;5455;53.224;6.000;2023-01-24T14:35:58;8.40;;;6.73;;
10805;SDS011;5455;53.224;6.000;2023-01-24T14:38:28;8.90;;;7.03;;
10805;SDS011;5455;53.224;6.000;2023-01-24T14:40:55;9.97;;;6.97;;
10805;SDS011;5455;53.224;6.000;2023-01-24T14:43:43;11.10;;;7.67;;
10805;SDS011;5455;53.224;6.000;2023-01-24T14:46:15;11.40;;;7.83;;
10805;SDS011;5455;53.224;6.000;2023-01-24T14:48:47;9.77;;;7.07;;
10805;SDS011;5455;53.224;6.000;2023-01-24T14:51:16;9.07;;;7.17;;
10805;SDS011;5455;53.224;6.000;2023-01-24T14:53:53;10.10;;;7.23;;
10805;SDS011;5455;53.224;6.000;2023-01-24T14:56:21;8.40;;;6.83;;
10805;SDS011;5455;53.224;6.000;2023-01-24T14:58:49;8.53;;;6.93;;
10805;SDS011;5455;53.224;6.000;2023-01-24T15:01:30;8.73;;;6.80;;
10805;SDS011;5455;53.224;6.000;2023-01-24T15:04:01;7.77;;;6.50;;
10805;SDS011;5455;53.224;6.000;2023-01-24T15:06:31;9.27;;;7.23;;
10805;SDS011;5455;53.224;6.000;2023-01-24T15:09:00;8.60;;;6.53;;
10805;SDS011;5455;53.224;6.000;2023-01-24T15:11:31;7.20;;;6.30;;
10805;SDS011;5455;53.224;6.000;2023-01-24T15:14:03;8.03;;;6.17;;
10805;SDS011;5455;53.224;6.000;2023-01-24T15:16:35;10.33;;;7.10;;
10805;SDS011;5455;53.224;6.000;2023-01-24T15:19:16;10.10;;;7.47;;
10805;SDS011;5455;53.224;6.000;2023-01-24T15:21:48;9.17;;;6.73;;
10805;SDS011;5455;53.224;6.000;2023-01-24T15:24:18;9.63;;;7.97;;
10805;SDS011;5455;53.224;6.000;2023-01-24T15:26:49;10.97;;;7.33;;
10805;SDS011;5455;53.224;6.000;2023-01-24T15:40:54;10.70;;;8.43;;
10805;SDS011;5455;53.224;6.000;2023-01-24T15:43:46;11.33;;;7.30;;
10805;SDS011;5455;53.224;6.000;2023-01-24T15:46:31;11.00;;;7.60;;
10805;SDS011;5455;53.224;6.000;2023-01-24T15:54:36;10.40;;;7.70;;
10805;SDS011;5455;53.224;6.000;2023-01-24T15:57:05;9.07;;;7.20;;
10805;SDS011;5455;53.224;6.000;2023-01-24T15:59:44;13.40;;;7.57;;
10805;SDS011;5455;53.224;6.000;2023-01-24T16:02:15;9.83;;;7.53;;
10805;SDS011;5455;53.224;6.000;2023-01-24T16:04:42;10.10;;;7.30;;
10805;SDS011;5455;53.224;6.000;2023-01-24T16:07:11;9.47;;;7.57;;
10805;SDS011;5455;53.224;6.000;2023-01-24T16:09:39;9.43;;;7.70;;
10805;SDS011;5455;53.224;6.000;2023-01-24T16:12:07;9.03;;;7.30;;
10805;SDS011;5455;53.224;6.000;2023-01-24T16:14:39;10.80;;;8.80;;
10805;SDS011;5455;53.224;6.000;2023-01-24T16:17:24;9.37;;;7.43;;
10805;SDS011;5455;53.224;6.000;2023-01-24T16:19:51;10.57;;;8.10;;
10805;SDS011;5455;53.224;6.000;2023-01-24T16:22:18;10.90;;;7.77;;
10805;SDS011;5455;53.224;6.000;2023-01-24T16:24:46;13.13;;;9.37;;
10805;SDS011;5455;53.224;6.000;2023-01-24T16:27:15;13.03;;;9.00;;
10805;SDS011;5455;53.224;6.000;2023-01-24T16:29:42;13.63;;;9.67;;
10805;SDS011;5455;53.224;6.000;2023-01-24T16:32:15;10.57;;;8.50;;
10805;SDS011;5455;53.224;6.000;2023-01-24T16:34:47;10.17;;;8.73;;
10805;SDS011;5455;53.224;6.000;2023-01-24T16:37:14;11.27;;;8.57;;
10805;SDS011;5455;53.224;6.000;2023-01-24T16:39:41;10.30;;;8.13;;
10805;SDS011;5455;53.224;6.000;2023-01-24T16:42:18;9.83;;;7.63;;
10805;SDS011;5455;53.224;6.000;2023-01-24T16:44:53;9.23;;;6.93;;
10805;SDS011;5455;53.224;6.000;2023-01-24T16:47:23;8.23;;;6.87;;
10805;SDS011;5455;53.224;6.000;2023-01-24T16:49:52;9.57;;;6.73;;
10805;SDS011;5455;53.224;6.000;2023-01-24T16:52:21;9.33;;;7.17;;
10805;SDS011;5455;53.224;6.000;2023-01-24T16:54:50;9.70;;;7.17;;
10805;SDS011;5455;53.224;6.000;2023-01-24T16:57:17;8.93;;;7.23;;
10805;SDS011;5455;53.224;6.000;2023-01-24T16:59:45;9.77;;;7.10;;
10805;SDS011;5455;53.224;6.000;2023-01-24T17:02:17;10.07;;;7.03;;
10805;SDS011;5455;53.224;6.000;2023-01-24T17:04:46;9.33;;;6.97;;
10805;SDS011;5455;53.224;6.000;2023-01-24T17:07:15;9.63;;;6.53;;
10805;SDS011;5455;53.224;6.000;2023-01-24T17:09:42;9.37;;;7.27;;
10805;SDS011;5455;53.224;6.000;2023-01-24T17:12:09;8.43;;;7.20;;
10805;SDS011;5455;53.224;6.000;2023-01-24T17:14:40;10.47;;;7.73;;
10805;SDS011;5455;53.224;6.000;2023-01-24T17:17:09;9.73;;;7.87;;
10805;SDS011;5455;53.224;6.000;2023-01-24T17:19:36;9.37;;;7.30;;
10805;SDS011;5455;53.224;6.000;2023-01-24T17:22:04;9.53;;;7.07;;
10805;SDS011;5455;53.224;6.000;2023-01-24T17:24:32;10.20;;;7.47;;
10805;SDS011;5455;53.224;6.000;2023-01-24T17:26:59;8.53;;;6.80;;
10805;SDS011;5455;53.224;6.000;2023-01-24T17:29:26;12.03;;;7.60;;
10805;SDS011;5455;53.224;6.000;2023-01-24T17:31:55;10.63;;;7.37;;
10805;SDS011;5455;53.224;6.000;2023-01-24T17:34:23;10.43;;;7.90;;
10805;SDS011;5455;53.224;6.000;2023-01-24T17:36:50;11.03;;;7.50;;
10805;SDS011;5455;53.224;6.000;2023-01-24T17:39:18;8.40;;;6.83;;
10805;SDS011;5455;53.224;6.000;2023-01-24T17:41:46;9.70;;;6.70;;